Terminal Aerodrome Forecast
Issued by NWS Wilmington, OH

Current Version | Previous Version | Text Only | Print | Product List | Glossary Off
Versions: 1 2 3 4 5 6 7 8 9 10 11 12 13 14 15 16

000
FTUS41 KILN 101747
TAFCMH
TAF
KCMH 101747Z 1018/1118 23012G20KT P6SM OVC080
     FM102200 22010KT P6SM SCT100
     FM110000 22008KT P6SM BKN035
      TEMPO 1102/1106 BKN025
     FM110600 28005KT P6SM SCT020
     FM110900 VRB03KT P6SM SCT020
     FM111500 19005KT P6SM BKN100=

USA.gov is the U.S. government's official web portal to all federal, state and local government web resources and services.